sensor_id;sensor_type;location;lat;lon;timestamp;temperature;humidity
19220;DHT22;9744;49.364;7.484;2023-04-06T00:01:01;3.40;98.40
19220;DHT22;9744;49.364;7.484;2023-04-06T00:03:28;3.30;98.50
19220;DHT22;9744;49.364;7.484;2023-04-06T00:05:57;3.30;99.10
19220;DHT22;9744;49.364;7.484;2023-04-06T00:08:25;3.30;99.20
19220;DHT22;9744;49.364;7.484;2023-04-06T00:10:52;3.30;99.60
19220;DHT22;9744;49.364;7.484;2023-04-06T00:13:20;3.30;99.90
19220;DHT22;9744;49.364;7.484;2023-04-06T00:15:48;3.20;99.90
19220;DHT22;9744;49.364;7.484;2023-04-06T00:18:15;3.30;99.90
19220;DHT22;9744;49.364;7.484;2023-04-06T00:20:42;3.20;99.90
19220;DHT22;9744;49.364;7.484;2023-04-06T00:23:11;3.20;99.90
19220;DHT22;9744;49.364;7.484;2023-04-06T00:25:38;3.20;99.90
19220;DHT22;9744;49.364;7.484;2023-04-06T00:28:05;3.20;99.90
19220;DHT22;9744;49.364;7.484;2023-04-06T00:30:33;3.20;99.90
19220;DHT22;9744;49.364;7.484;2023-04-06T00:33:01;3.20;99.90
19220;DHT22;9744;49.364;7.484;2023-04-06T00:35:28;3.20;99.90
19220;DHT22;9744;49.364;7.484;2023-04-06T00:37:55;3.20;99.90
19220;DHT22;9744;49.364;7.484;2023-04-06T00:40:24;3.20;99.90
19220;DHT22;9744;49.364;7.484;2023-04-06T00:42:53;3.30;99.90
19220;DHT22;9744;49.364;7.484;2023-04-06T00:45:21;3.20;99.90
19220;DHT22;9744;49.364;7.484;2023-04-06T00:47:48;3.20;99.90
19220;DHT22;9744;49.364;7.484;2023-04-06T00:50:16;3.20;99.90
19220;DHT22;9744;49.364;7.484;2023-04-06T00:52:43;3.10;99.90
19220;DHT22;9744;49.364;7.484;2023-04-06T00:55:11;3.10;99.90
19220;DHT22;9744;49.364;7.484;2023-04-06T00:57:43;3.10;99.90
19220;DHT22;9744;49.364;7.484;2023-04-06T01:00:12;3.10;99.90
19220;DHT22;9744;49.364;7.484;2023-04-06T01:02:40;3.10;99.90
19220;DHT22;9744;49.364;7.484;2023-04-06T01:05:09;3.00;99.90
19220;DHT22;9744;49.364;7.484;2023-04-06T01:07:46;2.90;99.90
19220;DHT22;9744;49.364;7.484;2023-04-06T01:10:24;2.90;99.90
19220;DHT22;9744;49.364;7.484;2023-04-06T01:12:58;2.90;99.90
19220;DHT22;9744;49.364;7.484;2023-04-06T01:15:44;2.90;99.90
19220;DHT22;9744;49.364;7.484;2023-04-06T01:18:16;2.90;99.90
19220;DHT22;9744;49.364;7.484;2023-04-06T01:20:53;2.80;99.90
19220;DHT22;9744;49.364;7.484;2023-04-06T01:23:25;2.80;99.90
19220;DHT22;9744;49.364;7.484;2023-04-06T01:25:53;2.80;99.90
19220;DHT22;9744;49.364;7.484;2023-04-06T01:28:20;2.80;99.90
19220;DHT22;9744;49.364;7.484;2023-04-06T01:31:08;2.70;99.90
19220;DHT22;9744;49.364;7.484;2023-04-06T01:33:44;2.70;99.90
19220;DHT22;9744;49.364;7.484;2023-04-06T01:36:16;2.70;99.90
19220;DHT22;9744;49.364;7.484;2023-04-06T01:38:48;2.60;99.90
19220;DHT22;9744;49.364;7.484;2023-04-06T01:41:18;2.60;99.90
19220;DHT22;9744;49.364;7.484;2023-04-06T01:43:50;2.60;99.90
19220;DHT22;9744;49.364;7.484;2023-04-06T01:46:21;2.60;99.90
19220;DHT22;9744;49.364;7.484;2023-04-06T01:48:50;2.60;99.90
19220;DHT22;9744;49.364;7.484;2023-04-06T01:51:22;2.60;99.90
19220;DHT22;9744;49.364;7.484;2023-04-06T01:53:57;2.60;99.90
19220;DHT22;9744;49.364;7.484;2023-04-06T01:56:34;2.60;99.90
19220;DHT22;9744;49.364;7.484;2023-04-06T01:59:10;2.60;99.90
19220;DHT22;9744;49.364;7.484;2023-04-06T02:01:41;2.60;99.90
19220;DHT22;9744;49.364;7.484;2023-04-06T02:04:08;2.60;99.90
19220;DHT22;9744;49.364;7.484;2023-04-06T02:06:36;2.50;99.90
19220;DHT22;9744;49.364;7.484;2023-04-06T02:09:07;2.40;99.90
19220;DHT22;9744;49.364;7.484;2023-04-06T02:11:35;2.40;99.90
19220;DHT22;9744;49.364;7.484;2023-04-06T02:14:02;2.20;99.90
19220;DHT22;9744;49.364;7.484;2023-04-06T02:16:32;2.30;99.90
19220;DHT22;9744;49.364;7.484;2023-04-06T02:18:59;2.20;99.90
19220;DHT22;9744;49.364;7.484;2023-04-06T02:21:27;2.10;99.90
19220;DHT22;9744;49.364;7.484;2023-04-06T02:23:54;2.00;99.90
19220;DHT22;9744;49.364;7.484;2023-04-06T02:26:23;2.00;99.90
19220;DHT22;9744;49.364;7.484;2023-04-06T02:28:50;2.00;99.90
19220;DHT22;9744;49.364;7.484;2023-04-06T02:31:18;2.00;99.90
19220;DHT22;9744;49.364;7.484;2023-04-06T02:33:45;2.10;99.90
19220;DHT22;9744;49.364;7.484;2023-04-06T02:36:14;2.10;99.90
19220;DHT22;9744;49.364;7.484;2023-04-06T02:38:42;2.10;99.90
19220;DHT22;9744;49.364;7.484;2023-04-06T02:41:09;2.00;99.90
19220;DHT22;9744;49.364;7.484;2023-04-06T02:43:39;2.00;99.90
19220;DHT22;9744;49.364;7.484;2023-04-06T02:46:16;2.00;99.90
19220;DHT22;9744;49.364;7.484;2023-04-06T02:48:46;1.90;99.90
19220;DHT22;9744;49.364;7.484;2023-04-06T02:51:14;1.90;99.90
19220;DHT22;9744;49.364;7.484;2023-04-06T02:53:45;1.90;99.90
19220;DHT22;9744;49.364;7.484;2023-04-06T02:56:13;1.80;99.90
19220;DHT22;9744;49.364;7.484;2023-04-06T02:58:47;1.80;99.90
19220;DHT22;9744;49.364;7.484;2023-04-06T03:01:15;1.70;99.90
19220;DHT22;9744;49.364;7.484;2023-04-06T03:03:43;1.70;99.90
19220;DHT22;9744;49.364;7.484;2023-04-06T03:06:17;1.70;99.90
19220;DHT22;9744;49.364;7.484;2023-04-06T03:08:45;1.70;99.90
19220;DHT22;9744;49.364;7.484;2023-04-06T03:14:42;1.70;99.90
19220;DHT22;9744;49.364;7.484;2023-04-06T03:17:10;1.70;99.90
19220;DHT22;9744;49.364;7.484;2023-04-06T03:19:38;1.70;99.90
19220;DHT22;9744;49.364;7.484;2023-04-06T03:22:06;1.80;99.90
19220;DHT22;9744;49.364;7.484;2023-04-06T03:24:33;1.80;99.90
19220;DHT22;9744;49.364;7.484;2023-04-06T03:27:00;1.80;99.90
19220;DHT22;9744;49.364;7.484;2023-04-06T03:29:28;1.80;99.90
19220;DHT22;9744;49.364;7.484;2023-04-06T03:31:57;1.70;99.90
19220;DHT22;9744;49.364;7.484;2023-04-06T03:34:37;1.70;99.90
19220;DHT22;9744;49.364;7.484;2023-04-06T03:37:05;1.70;99.90
19220;DHT22;9744;49.364;7.484;2023-04-06T03:39:32;1.70;99.90
19220;DHT22;9744;49.364;7.484;2023-04-06T03:42:00;1.70;99.90
19220;DHT22;9744;49.364;7.484;2023-04-06T03:44:36;1.70;99.90
19220;DHT22;9744;49.364;7.484;2023-04-06T03:47:06;1.70;99.90
19220;DHT22;9744;49.364;7.484;2023-04-06T03:49:34;1.70;99.90
19220;DHT22;9744;49.364;7.484;2023-04-06T03:52:01;1.60;99.90
19220;DHT22;9744;49.364;7.484;2023-04-06T03:54:29;1.60;99.90
19220;DHT22;9744;49.364;7.484;2023-04-06T03:56:56;1.50;99.90
19220;DHT22;9744;49.364;7.484;2023-04-06T03:59:26;1.50;99.90
19220;DHT22;9744;49.364;7.484;2023-04-06T04:01:53;1.60;99.90
19220;DHT22;9744;49.364;7.484;2023-04-06T04:04:22;1.50;99.90
19220;DHT22;9744;49.364;7.484;2023-04-06T04:06:49;1.50;99.90
19220;DHT22;9744;49.364;7.484;2023-04-06T04:09:16;1.40;99.90
19220;DHT22;9744;49.364;7.484;2023-04-06T04:11:44;1.40;99.90
19220;DHT22;9744;49.364;7.484;2023-04-06T04:14:11;1.40;99.90
19220;DHT22;9744;49.364;7.484;2023-04-06T04:16:38;1.40;99.90
19220;DHT22;9744;49.364;7.484;2023-04-06T04:19:07;1.40;99.90
19220;DHT22;9744;49.364;7.484;2023-04-06T04:21:42;1.30;99.90
19220;DHT22;9744;49.364;7.484;2023-04-06T04:24:11;1.30;99.90
19220;DHT22;9744;49.364;7.484;2023-04-06T04:26:39;1.30;99.90
19220;DHT22;9744;49.364;7.484;2023-04-06T04:29:08;1.30;99.90
19220;DHT22;9744;49.364;7.484;2023-04-06T04:31:37;1.30;99.90
19220;DHT22;9744;49.364;7.484;2023-04-06T04:34:10;1.30;99.90
19220;DHT22;9744;49.364;7.484;2023-04-06T04:36:39;1.30;99.90
19220;DHT22;9744;49.364;7.484;2023-04-06T04:39:10;1.40;99.90
19220;DHT22;9744;49.364;7.484;2023-04-06T04:41:42;1.40;99.90
19220;DHT22;9744;49.364;7.484;2023-04-06T04:44:11;1.40;99.90
19220;DHT22;9744;49.364;7.484;2023-04-06T04:46:39;1.40;99.90
19220;DHT22;9744;49.364;7.484;2023-04-06T04:49:08;1.50;99.90
19220;DHT22;9744;49.364;7.484;2023-04-06T04:51:36;1.50;99.90
19220;DHT22;9744;49.364;7.484;2023-04-06T04:54:09;1.50;99.90
19220;DHT22;9744;49.364;7.484;2023-04-06T04:56:36;1.50;99.90
19220;DHT22;9744;49.364;7.484;2023-04-06T04:59:42;1.50;99.90
19220;DHT22;9744;49.364;7.484;2023-04-06T05:02:16;1.50;99.90
19220;DHT22;9744;49.364;7.484;2023-04-06T05:05:08;1.50;99.90
19220;DHT22;9744;49.364;7.484;2023-04-06T05:07:36;1.40;99.90
19220;DHT22;9744;49.364;7.484;2023-04-06T05:10:08;1.40;99.90
19220;DHT22;9744;49.364;7.484;2023-04-06T05:12:42;1.40;99.90
19220;DHT22;9744;49.364;7.484;2023-04-06T05:15:10;1.50;99.90
19220;DHT22;9744;49.364;7.484;2023-04-06T05:17:38;1.50;99.90
19220;DHT22;9744;49.364;7.484;2023-04-06T05:20:07;1.50;99.90
19220;DHT22;9744;49.364;7.484;2023-04-06T05:22:43;1.50;99.90
19220;DHT22;9744;49.364;7.484;2023-04-06T05:25:12;1.50;99.90
19220;DHT22;9744;49.364;7.484;2023-04-06T05:27:40;1.50;99.90
19220;DHT22;9744;49.364;7.484;2023-04-06T05:30:20;1.60;99.90
19220;DHT22;9744;49.364;7.484;2023-04-06T05:32:48;1.60;99.90
19220;DHT22;9744;49.364;7.484;2023-04-06T05:35:17;1.60;99.90
19220;DHT22;9744;49.364;7.484;2023-04-06T05:37:49;1.60;99.90
19220;DHT22;9744;49.364;7.484;2023-04-06T05:40:21;1.60;99.90
19220;DHT22;9744;49.364;7.484;2023-04-06T05:42:49;1.70;99.90
19220;DHT22;9744;49.364;7.484;2023-04-06T05:45:17;1.70;99.90
19220;DHT22;9744;49.364;7.484;2023-04-06T05:47:50;1.70;99.90
19220;DHT22;9744;49.364;7.484;2023-04-06T05:50:24;1.80;99.90
19220;DHT22;9744;49.364;7.484;2023-04-06T05:52:52;1.80;99.90
19220;DHT22;9744;49.364;7.484;2023-04-06T05:55:23;1.80;99.90
19220;DHT22;9744;49.364;7.484;2023-04-06T05:58:00;1.90;99.90
19220;DHT22;9744;49.364;7.484;2023-04-06T06:00:27;1.90;99.90
19220;DHT22;9744;49.364;7.484;2023-04-06T06:03:02;1.90;99.90
19220;DHT22;9744;49.364;7.484;2023-04-06T06:05:32;2.00;99.90
19220;DHT22;9744;49.364;7.484;2023-04-06T06:08:07;2.00;99.90
19220;DHT22;9744;49.364;7.484;2023-04-06T06:10:38;2.10;99.90
19220;DHT22;9744;49.364;7.484;2023-04-06T06:13:07;2.10;99.90
19220;DHT22;9744;49.364;7.484;2023-04-06T06:15:34;2.20;99.90
19220;DHT22;9744;49.364;7.484;2023-04-06T06:18:02;2.30;99.90
19220;DHT22;9744;49.364;7.484;2023-04-06T06:20:30;2.30;99.90
19220;DHT22;9744;49.364;7.484;2023-04-06T06:23:02;2.40;99.90
19220;DHT22;9744;49.364;7.484;2023-04-06T06:25:30;2.40;99.90
19220;DHT22;9744;49.364;7.484;2023-04-06T06:27:59;2.50;99.90
19220;DHT22;9744;49.364;7.484;2023-04-06T06:30:29;2.50;99.90
19220;DHT22;9744;49.364;7.484;2023-04-06T06:32:56;2.50;99.90
19220;DHT22;9744;49.364;7.484;2023-04-06T06:35:24;2.50;99.90
19220;DHT22;9744;49.364;7.484;2023-04-06T06:37:52;2.60;99.90
19220;DHT22;9744;49.364;7.484;2023-04-06T06:40:28;2.60;99.90
19220;DHT22;9744;49.364;7.484;2023-04-06T06:42:56;2.70;99.90
19220;DHT22;9744;49.364;7.484;2023-04-06T06:45:44;2.70;99.90
19220;DHT22;9744;49.364;7.484;2023-04-06T06:48:12;2.80;99.90
19220;DHT22;9744;49.364;7.484;2023-04-06T06:50:40;2.90;99.90
19220;DHT22;9744;49.364;7.484;2023-04-06T06:53:07;3.00;99.90
19220;DHT22;9744;49.364;7.484;2023-04-06T06:55:34;3.10;99.90
19220;DHT22;9744;49.364;7.484;2023-04-06T06:58:02;3.20;99.90
19220;DHT22;9744;49.364;7.484;2023-04-06T07:00:29;3.30;99.90
19220;DHT22;9744;49.364;7.484;2023-04-06T07:02:58;3.40;99.90
19220;DHT22;9744;49.364;7.484;2023-04-06T07:05:25;3.50;99.90
19220;DHT22;9744;49.364;7.484;2023-04-06T07:07:53;3.50;99.90
19220;DHT22;9744;49.364;7.484;2023-04-06T07:10:20;3.70;99.90
19220;DHT22;9744;49.364;7.484;2023-04-06T07:12:48;3.70;99.90
19220;DHT22;9744;49.364;7.484;2023-04-06T07:15:16;3.90;99.90
19220;DHT22;9744;49.364;7.484;2023-04-06T07:17:43;4.00;99.90
19220;DHT22;9744;49.364;7.484;2023-04-06T07:20:13;4.20;99.90
19220;DHT22;9744;49.364;7.484;2023-04-06T07:22:45;4.20;99.90
19220;DHT22;9744;49.364;7.484;2023-04-06T07:25:12;4.30;99.90
19220;DHT22;9744;49.364;7.484;2023-04-06T07:27:40;4.40;99.90
19220;DHT22;9744;49.364;7.484;2023-04-06T07:30:09;4.50;99.90
19220;DHT22;9744;49.364;7.484;2023-04-06T07:32:37;4.50;99.90
19220;DHT22;9744;49.364;7.484;2023-04-06T07:35:06;4.60;99.90
19220;DHT22;9744;49.364;7.484;2023-04-06T07:37:34;4.80;99.90
19220;DHT22;9744;49.364;7.484;2023-04-06T07:40:02;4.90;99.90
19220;DHT22;9744;49.364;7.484;2023-04-06T07:42:30;5.10;99.90
19220;DHT22;9744;49.364;7.484;2023-04-06T07:44:59;5.10;99.90
19220;DHT22;9744;49.364;7.484;2023-04-06T07:47:26;5.20;99.90
19220;DHT22;9744;49.364;7.484;2023-04-06T07:49:54;5.30;99.90
19220;DHT22;9744;49.364;7.484;2023-04-06T07:52:22;5.40;99.90
19220;DHT22;9744;49.364;7.484;2023-04-06T07:54:51;5.50;99.90
19220;DHT22;9744;49.364;7.484;2023-04-06T07:57:18;5.50;99.90
19220;DHT22;9744;49.364;7.484;2023-04-06T07:59:46;5.60;99.90
19220;DHT22;9744;49.364;7.484;2023-04-06T08:02:13;5.70;99.90
19220;DHT22;9744;49.364;7.484;2023-04-06T08:04:40;5.90;99.90
19220;DHT22;9744;49.364;7.484;2023-04-06T08:07:07;6.00;99.90
19220;DHT22;9744;49.364;7.484;2023-04-06T08:09:35;6.20;99.90
19220;DHT22;9744;49.364;7.484;2023-04-06T08:12:03;6.40;99.90
19220;DHT22;9744;49.364;7.484;2023-04-06T08:14:31;6.60;99.90
19220;DHT22;9744;49.364;7.484;2023-04-06T08:16:58;6.80;99.90
19220;DHT22;9744;49.364;7.484;2023-04-06T08:19:25;6.90;99.90
19220;DHT22;9744;49.364;7.484;2023-04-06T08:21:53;7.10;99.90
19220;DHT22;9744;49.364;7.484;2023-04-06T08:24:20;7.20;99.90
19220;DHT22;9744;49.364;7.484;2023-04-06T08:26:47;7.30;99.90
19220;DHT22;9744;49.364;7.484;2023-04-06T08:29:16;7.20;99.90
19220;DHT22;9744;49.364;7.484;2023-04-06T08:31:43;7.30;99.90
19220;DHT22;9744;49.364;7.484;2023-04-06T08:34:11;7.50;99.90
19220;DHT22;9744;49.364;7.484;2023-04-06T08:36:38;7.60;99.90
19220;DHT22;9744;49.364;7.484;2023-04-06T08:39:05;7.70;99.90
19220;DHT22;9744;49.364;7.484;2023-04-06T08:41:34;7.90;99.90
19220;DHT22;9744;49.364;7.484;2023-04-06T08:44:02;8.00;99.90
19220;DHT22;9744;49.364;7.484;2023-04-06T08:46:32;8.00;99.90
19220;DHT22;9744;49.364;7.484;2023-04-06T08:49:01;8.10;99.90
19220;DHT22;9744;49.364;7.484;2023-04-06T08:51:29;8.20;99.90
19220;DHT22;9744;49.364;7.484;2023-04-06T08:53:58;8.30;99.90
19220;DHT22;9744;49.364;7.484;2023-04-06T08:56:27;8.30;99.90
19220;DHT22;9744;49.364;7.484;2023-04-06T08:58:55;8.20;99.90
19220;DHT22;9744;49.364;7.484;2023-04-06T09:01:25;8.10;99.90
19220;DHT22;9744;49.364;7.484;2023-04-06T09:03:57;8.20;99.90
19220;DHT22;9744;49.364;7.484;2023-04-06T09:06:25;8.30;99.90
19220;DHT22;9744;49.364;7.484;2023-04-06T09:08:53;8.60;99.90
19220;DHT22;9744;49.364;7.484;2023-04-06T09:11:21;8.60;99.90
19220;DHT22;9744;49.364;7.484;2023-04-06T09:13:50;8.90;99.90
19220;DHT22;9744;49.364;7.484;2023-04-06T09:16:18;9.20;99.90
19220;DHT22;9744;49.364;7.484;2023-04-06T09:18:46;9.50;99.90
19220;DHT22;9744;49.364;7.484;2023-04-06T09:21:17;9.70;99.90
19220;DHT22;9744;49.364;7.484;2023-04-06T09:23:44;10.00;99.90
19220;DHT22;9744;49.364;7.484;2023-04-06T09:26:14;10.10;99.90
19220;DHT22;9744;49.364;7.484;2023-04-06T09:28:45;10.20;99.90
19220;DHT22;9744;49.364;7.484;2023-04-06T09:31:14;10.30;99.90
19220;DHT22;9744;49.364;7.484;2023-04-06T09:33:43;10.30;99.90
19220;DHT22;9744;49.364;7.484;2023-04-06T09:36:11;10.60;99.90
19220;DHT22;9744;49.364;7.484;2023-04-06T09:38:52;10.70;99.90
19220;DHT22;9744;49.364;7.484;2023-04-06T09:41:23;10.90;99.90
19220;DHT22;9744;49.364;7.484;2023-04-06T09:43:51;10.90;99.90
19220;DHT22;9744;49.364;7.484;2023-04-06T09:46:21;10.80;99.90
19220;DHT22;9744;49.364;7.484;2023-04-06T09:48:54;10.90;99.90
19220;DHT22;9744;49.364;7.484;2023-04-06T09:51:22;10.90;99.90
19220;DHT22;9744;49.364;7.484;2023-04-06T09:53:52;10.90;99.90
19220;DHT22;9744;49.364;7.484;2023-04-06T09:56:24;10.80;99.90
19220;DHT22;9744;49.364;7.484;2023-04-06T09:58:58;10.90;99.90
19220;DHT22;9744;49.364;7.484;2023-04-06T10:01:30;11.00;99.90
19220;DHT22;9744;49.364;7.484;2023-04-06T10:04:07;10.90;99.90
19220;DHT22;9744;49.364;7.484;2023-04-06T10:06:38;10.60;99.90
19220;DHT22;9744;49.364;7.484;2023-04-06T10:09:07;10.50;99.90
19220;DHT22;9744;49.364;7.484;2023-04-06T10:11:35;10.40;99.90
19220;DHT22;9744;49.364;7.484;2023-04-06T10:14:02;10.70;99.90
19220;DHT22;9744;49.364;7.484;2023-04-06T10:16:30;10.90;99.90
19220;DHT22;9744;49.364;7.484;2023-04-06T10:19:04;11.00;99.90
19220;DHT22;9744;49.364;7.484;2023-04-06T10:21:34;11.00;99.90
19220;DHT22;9744;49.364;7.484;2023-04-06T10:24:08;10.90;99.20
19220;DHT22;9744;49.364;7.484;2023-04-06T10:26:38;10.50;99.70
19220;DHT22;9744;49.364;7.484;2023-04-06T10:29:06;10.40;99.40
19220;DHT22;9744;49.364;7.484;2023-04-06T10:31:41;10.40;99.40
19220;DHT22;9744;49.364;7.484;2023-04-06T10:34:10;10.40;99.90
19220;DHT22;9744;49.364;7.484;2023-04-06T10:36:37;10.50;99.90
19220;DHT22;9744;49.364;7.484;2023-04-06T10:39:05;10.40;98.90
19220;DHT22;9744;49.364;7.484;2023-04-06T10:41:35;10.40;99.90
19220;DHT22;9744;49.364;7.484;2023-04-06T10:44:03;10.50;99.40
19220;DHT22;9744;49.364;7.484;2023-04-06T10:46:32;10.50;99.90
19220;DHT22;9744;49.364;7.484;2023-04-06T10:49:10;10.80;99.90
19220;DHT22;9744;49.364;7.484;2023-04-06T10:51:39;11.00;99.20
19220;DHT22;9744;49.364;7.484;2023-04-06T10:54:07;11.00;99.00
19220;DHT22;9744;49.364;7.484;2023-04-06T10:56:38;11.00;98.90
19220;DHT22;9744;49.364;7.484;2023-04-06T10:59:07;10.70;98.90
19220;DHT22;9744;49.364;7.484;2023-04-06T11:01:35;10.80;99.30
19220;DHT22;9744;49.364;7.484;2023-04-06T11:04:02;10.90;98.50
19220;DHT22;9744;49.364;7.484;2023-04-06T11:06:30;10.90;98.00
19220;DHT22;9744;49.364;7.484;2023-04-06T11:08:58;10.90;97.20
19220;DHT22;9744;49.364;7.484;2023-04-06T11:11:26;11.00;97.90
19220;DHT22;9744;49.364;7.484;2023-04-06T11:13:56;11.10;97.40
19220;DHT22;9744;49.364;7.484;2023-04-06T11:16:25;11.30;96.30
19220;DHT22;9744;49.364;7.484;2023-04-06T11:18:56;11.00;95.00
19220;DHT22;9744;49.364;7.484;2023-04-06T11:21:34;11.10;96.30
19220;DHT22;9744;49.364;7.484;2023-04-06T11:24:09;11.10;94.80
19220;DHT22;9744;49.364;7.484;2023-04-06T11:26:38;11.00;94.90
19220;DHT22;9744;49.364;7.484;2023-04-06T11:29:07;10.90;94.70
19220;DHT22;9744;49.364;7.484;2023-04-06T11:31:39;10.90;94.20
19220;DHT22;9744;49.364;7.484;2023-04-06T11:34:12;10.90;94.80
19220;DHT22;9744;49.364;7.484;2023-04-06T11:36:43;10.90;94.80
19220;DHT22;9744;49.364;7.484;2023-04-06T11:39:13;11.10;95.00
19220;DHT22;9744;49.364;7.484;2023-04-06T11:41:40;11.10;94.40
19220;DHT22;9744;49.364;7.484;2023-04-06T11:44:09;11.10;94.70
19220;DHT22;9744;49.364;7.484;2023-04-06T11:46:36;11.20;95.20
19220;DHT22;9744;49.364;7.484;2023-04-06T11:49:03;11.00;95.10
19220;DHT22;9744;49.364;7.484;2023-04-06T11:51:35;11.30;95.90
19220;DHT22;9744;49.364;7.484;2023-04-06T11:54:03;11.40;95.90
19220;DHT22;9744;49.364;7.484;2023-04-06T11:56:30;11.60;95.00
19220;DHT22;9744;49.364;7.484;2023-04-06T11:58:58;11.40;94.70
19220;DHT22;9744;49.364;7.484;2023-04-06T12:01:27;11.30;95.60
19220;DHT22;9744;49.364;7.484;2023-04-06T12:03:56;11.40;95.00
19220;DHT22;9744;49.364;7.484;2023-04-06T12:06:24;11.20;95.30
19220;DHT22;9744;49.364;7.484;2023-04-06T12:08:51;11.30;95.40
19220;DHT22;9744;49.364;7.484;2023-04-06T12:11:19;11.40;96.00
19220;DHT22;9744;49.364;7.484;2023-04-06T12:13:47;11.70;96.40
19220;DHT22;9744;49.364;7.484;2023-04-06T12:16:15;11.90;95.70
19220;DHT22;9744;49.364;7.484;2023-04-06T12:18:43;11.80;95.00
19220;DHT22;9744;49.364;7.484;2023-04-06T12:21:11;12.00;96.70
19220;DHT22;9744;49.364;7.484;2023-04-06T12:23:39;12.10;94.90
19220;DHT22;9744;49.364;7.484;2023-04-06T12:26:06;12.00;94.10
19220;DHT22;9744;49.364;7.484;2023-04-06T12:28:33;12.00;94.50
19220;DHT22;9744;49.364;7.484;2023-04-06T12:31:00;11.50;94.20
19220;DHT22;9744;49.364;7.484;2023-04-06T12:33:28;11.50;94.30
19220;DHT22;9744;49.364;7.484;2023-04-06T12:35:56;11.40;94.70
19220;DHT22;9744;49.364;7.484;2023-04-06T12:38:24;11.30;96.20
19220;DHT22;9744;49.364;7.484;2023-04-06T12:40:52;11.40;96.00
19220;DHT22;9744;49.364;7.484;2023-04-06T12:43:19;11.20;95.60
19220;DHT22;9744;49.364;7.484;2023-04-06T12:45:46;11.10;95.30
19220;DHT22;9744;49.364;7.484;2023-04-06T12:48:13;11.20;96.40
19220;DHT22;9744;49.364;7.484;2023-04-06T12:50:41;11.50;96.80
19220;DHT22;9744;49.364;7.484;2023-04-06T12:53:09;11.60;96.90
19220;DHT22;9744;49.364;7.484;2023-04-06T12:55:36;11.60;96.80
19220;DHT22;9744;49.364;7.484;2023-04-06T12:58:04;11.70;97.00
19220;DHT22;9744;49.364;7.484;2023-04-06T13:00:31;11.70;97.20
19220;DHT22;9744;49.364;7.484;2023-04-06T13:02:58;11.70;97.10
19220;DHT22;9744;49.364;7.484;2023-04-06T13:05:26;11.70;96.70
19220;DHT22;9744;49.364;7.484;2023-04-06T13:07:53;11.90;98.40
19220;DHT22;9744;49.364;7.484;2023-04-06T13:10:21;12.10;96.90
19220;DHT22;9744;49.364;7.484;2023-04-06T13:12:49;11.90;96.20
19220;DHT22;9744;49.364;7.484;2023-04-06T13:15:16;11.60;96.50
19220;DHT22;9744;49.364;7.484;2023-04-06T13:17:43;11.50;96.90
19220;DHT22;9744;49.364;7.484;2023-04-06T13:20:11;11.60;97.50
19220;DHT22;9744;49.364;7.484;2023-04-06T13:22:38;11.70;98.40
19220;DHT22;9744;49.364;7.484;2023-04-06T13:25:06;11.50;97.40
19220;DHT22;9744;49.364;7.484;2023-04-06T13:27:35;11.50;97.20
19220;DHT22;9744;49.364;7.484;2023-04-06T13:30:03;11.60;97.40
19220;DHT22;9744;49.364;7.484;2023-04-06T13:32:30;11.70;97.60
19220;DHT22;9744;49.364;7.484;2023-04-06T13:34:58;11.60;98.10
19220;DHT22;9744;49.364;7.484;2023-04-06T13:37:26;11.80;98.30
19220;DHT22;9744;49.364;7.484;2023-04-06T13:39:53;11.70;98.70
19220;DHT22;9744;49.364;7.484;2023-04-06T13:42:20;11.30;98.60
19220;DHT22;9744;49.364;7.484;2023-04-06T13:44:49;11.50;99.90
19220;DHT22;9744;49.364;7.484;2023-04-06T13:47:17;11.50;99.80
19220;DHT22;9744;49.364;7.484;2023-04-06T13:49:44;11.50;99.20
19220;DHT22;9744;49.364;7.484;2023-04-06T13:52:12;11.50;99.00
19220;DHT22;9744;49.364;7.484;2023-04-06T13:54:39;11.50;99.70
19220;DHT22;9744;49.364;7.484;2023-04-06T13:57:06;11.30;99.40
19220;DHT22;9744;49.364;7.484;2023-04-06T13:59:33;11.40;99.90
19220;DHT22;9744;49.364;7.484;2023-04-06T14:02:03;11.50;99.90
19220;DHT22;9744;49.364;7.484;2023-04-06T14:04:30;11.30;99.90
19220;DHT22;9744;49.364;7.484;2023-04-06T14:06:57;11.10;99.90
19220;DHT22;9744;49.364;7.484;2023-04-06T14:09:25;11.00;99.90
19220;DHT22;9744;49.364;7.484;2023-04-06T14:11:52;10.80;99.90
19220;DHT22;9744;49.364;7.484;2023-04-06T14:14:19;10.40;99.90
19220;DHT22;9744;49.364;7.484;2023-04-06T14:16:47;10.30;99.90
19220;DHT22;9744;49.364;7.484;2023-04-06T14:19:16;10.40;99.90
19220;DHT22;9744;49.364;7.484;2023-04-06T14:21:44;10.40;99.90
19220;DHT22;9744;49.364;7.484;2023-04-06T14:24:12;10.40;99.90
19220;DHT22;9744;49.364;7.484;2023-04-06T14:26:40;10.20;99.90
19220;DHT22;9744;49.364;7.484;2023-04-06T14:29:09;10.10;99.90
19220;DHT22;9744;49.364;7.484;2023-04-06T14:31:37;10.00;99.90
19220;DHT22;9744;49.364;7.484;2023-04-06T14:34:04;10.00;99.90
19220;DHT22;9744;49.364;7.484;2023-04-06T14:36:33;9.80;99.90
19220;DHT22;9744;49.364;7.484;2023-04-06T14:39:02;9.70;99.90
19220;DHT22;9744;49.364;7.484;2023-04-06T14:41:32;9.70;99.90
19220;DHT22;9744;49.364;7.484;2023-04-06T14:43:59;9.60;99.90
19220;DHT22;9744;49.364;7.484;2023-04-06T14:46:26;9.70;99.90
19220;DHT22;9744;49.364;7.484;2023-04-06T14:48:54;9.80;99.90
19220;DHT22;9744;49.364;7.484;2023-04-06T14:51:23;9.80;99.90
19220;DHT22;9744;49.364;7.484;2023-04-06T14:53:52;9.90;99.90
19220;DHT22;9744;49.364;7.484;2023-04-06T14:56:20;9.80;99.90
19220;DHT22;9744;49.364;7.484;2023-04-06T14:58:48;9.90;99.90
19220;DHT22;9744;49.364;7.484;2023-04-06T15:01:16;9.70;99.90
19220;DHT22;9744;49.364;7.484;2023-04-06T15:03:43;9.60;99.90
19220;DHT22;9744;49.364;7.484;2023-04-06T15:06:13;9.70;99.90
19220;DHT22;9744;49.364;7.484;2023-04-06T15:08:42;9.80;99.90
19220;DHT22;9744;49.364;7.484;2023-04-06T15:11:11;10.00;99.90
19220;DHT22;9744;49.364;7.484;2023-04-06T15:13:39;9.90;99.90
19220;DHT22;9744;49.364;7.484;2023-04-06T15:16:08;9.80;99.90
19220;DHT22;9744;49.364;7.484;2023-04-06T15:18:35;9.70;99.90
19220;DHT22;9744;49.364;7.484;2023-04-06T15:21:02;9.70;99.90
19220;DHT22;9744;49.364;7.484;2023-04-06T15:23:29;9.60;99.90
19220;DHT22;9744;49.364;7.484;2023-04-06T15:25:57;9.30;99.90
19220;DHT22;9744;49.364;7.484;2023-04-06T15:28:26;9.00;99.90
19220;DHT22;9744;49.364;7.484;2023-04-06T15:30:54;8.90;99.90
19220;DHT22;9744;49.364;7.484;2023-04-06T15:33:23;8.80;99.90
19220;DHT22;9744;49.364;7.484;2023-04-06T15:35:50;8.70;99.90
19220;DHT22;9744;49.364;7.484;2023-04-06T15:38:18;8.60;99.90
19220;DHT22;9744;49.364;7.484;2023-04-06T15:40:47;8.50;99.90
19220;DHT22;9744;49.364;7.484;2023-04-06T15:43:15;8.50;99.90
19220;DHT22;9744;49.364;7.484;2023-04-06T15:45:46;8.60;99.90
19220;DHT22;9744;49.364;7.484;2023-04-06T15:48:13;8.50;99.90
19220;DHT22;9744;49.364;7.484;2023-04-06T15:50:41;8.50;99.90
19220;DHT22;9744;49.364;7.484;2023-04-06T15:53:08;8.40;99.90
19220;DHT22;9744;49.364;7.484;2023-04-06T15:55:35;8.20;99.90
19220;DHT22;9744;49.364;7.484;2023-04-06T15:58:02;8.10;99.90
19220;DHT22;9744;49.364;7.484;2023-04-06T16:00:29;8.10;99.90
19220;DHT22;9744;49.364;7.484;2023-04-06T16:02:58;8.10;99.90
19220;DHT22;9744;49.364;7.484;2023-04-06T16:05:25;8.00;99.90
19220;DHT22;9744;49.364;7.484;2023-04-06T16:07:54;7.90;99.90
19220;DHT22;9744;49.364;7.484;2023-04-06T16:10:21;7.90;99.90
19220;DHT22;9744;49.364;7.484;2023-04-06T16:12:49;7.70;99.90